Terminal Aerodrome Forecast
Issued by NWS Pendleton, OR

Home | Current Version | Previous Version | Text Only | Print | Product List | Glossary On
Versions: 1 2 3 4 5 6 7 8 9 10 11 12 13 14
000
FTUS46 KPDT 022320
TAFPDT
TAF
KPDT 022320Z 0300/0324 19010KT P6SM OVC080
     FM030200 26009KT P6SM BKN100
     FM030800 24007KT P6SM BKN250=

USA.gov is the U.S. government's official web portal to all federal, state and local government web resources and services.